createdAt,value
2023-03-17T00:00:20.984Z,101075.63
2023-03-17T00:05:43.792Z,101063.73
2023-03-17T00:10:46.665Z,101062.21
2023-03-17T00:16:05.010Z,101057.54
2023-03-17T00:21:15.691Z,101056.90
2023-03-17T00:26:19.786Z,101060.42
2023-03-17T00:31:26.264Z,101060.66
2023-03-17T00:36:31.910Z,101052.42
2023-03-17T00:41:34.720Z,101047.30
2023-03-17T00:46:38.420Z,101052.59
2023-03-17T00:51:43.606Z,101048.92
2023-03-17T00:56:52.200Z,101049.80
2023-03-17T01:01:56.300Z,101044.91
2023-03-17T01:06:59.372Z,101051.17
2023-03-17T01:12:02.237Z,101051.63
2023-03-17T01:17:15.079Z,101049.84
2023-03-17T01:22:17.834Z,101054.06
2023-03-17T01:27:20.705Z,101052.23
2023-03-17T01:32:23.570Z,101054.53
2023-03-17T01:37:27.128Z,101053.14
2023-03-17T01:42:30.129Z,101049.12
2023-03-17T01:47:33.542Z,101048.77
2023-03-17T01:52:39.995Z,101042.36
2023-03-17T01:57:56.713Z,101045.37
2023-03-17T02:03:00.007Z,101052.11
2023-03-17T02:08:03.322Z,101050.85
2023-03-17T02:13:07.931Z,101050.73
2023-03-17T02:18:13.772Z,101051.96
2023-03-17T02:23:22.446Z,101056.84
2023-03-17T02:28:30.490Z,101057.45
2023-03-17T02:33:33.584Z,101057.50
2023-03-17T02:38:37.424Z,101053.60
2023-03-17T02:43:41.596Z,101057.61
2023-03-17T02:48:46.219Z,101055.46
2023-03-17T02:53:49.037Z,101058.45
2023-03-17T02:58:52.044Z,101055.41
2023-03-17T03:03:55.437Z,101053.10
2023-03-17T03:08:58.635Z,101050.52
2023-03-17T03:14:01.395Z,101050.77
2023-03-17T03:19:04.831Z,101056.73
2023-03-17T03:24:09.230Z,101052.33
2023-03-17T03:29:12.340Z,101053.84
2023-03-17T03:34:15.613Z,101048.48
2023-03-17T03:39:18.442Z,101039.86
2023-03-17T03:44:21.489Z,101034.80
2023-03-17T03:49:24.596Z,101025.63
2023-03-17T03:54:27.399Z,101026.94
2023-03-17T03:59:30.596Z,101027.83
2023-03-17T04:04:33.549Z,101033.13
2023-03-17T04:09:36.661Z,101032.09
2023-03-17T04:14:39.386Z,101034.23
2023-03-17T04:19:42.315Z,101034.73
2023-03-17T04:24:45.069Z,101037.42
2023-03-17T04:29:49.126Z,101025.08
2023-03-17T04:34:51.997Z,101027.50
2023-03-17T04:39:55.930Z,101032.86
2023-03-17T04:44:58.846Z,101037.36
2023-03-17T04:50:02.240Z,101043.71
2023-03-17T04:55:08.373Z,101044.18
2023-03-17T05:00:12.871Z,101041.38
2023-03-17T05:05:16.089Z,101046.38
2023-03-17T05:10:19.018Z,101045.90
2023-03-17T05:15:21.775Z,101045.88
2023-03-17T05:20:26.115Z,101047.70
2023-03-17T05:25:28.937Z,101044.77
2023-03-17T05:30:32.007Z,101041.90
2023-03-17T05:35:35.058Z,101042.27
2023-03-17T05:40:38.240Z,101044.38
2023-03-17T05:45:41.370Z,101051.39
2023-03-17T05:50:44.423Z,101054.61
2023-03-17T05:55:47.920Z,101043.50
2023-03-17T06:00:51.239Z,101039.15
2023-03-17T06:05:54.561Z,101042.41
2023-03-17T06:10:57.453Z,101049.30
2023-03-17T06:16:00.239Z,101055.02
2023-03-17T06:21:03.004Z,101066.57
2023-03-17T06:26:06.441Z,101080.77
2023-03-17T06:31:09.418Z,101070.05
2023-03-17T06:36:12.438Z,101066.15
2023-03-17T06:41:16.240Z,101067.23
2023-03-17T06:46:19.100Z,101070.38
2023-03-17T06:51:22.157Z,101061.84
2023-03-17T06:56:30.307Z,101055.89
2023-03-17T07:01:33.907Z,101065.39
2023-03-17T07:06:36.846Z,101061.10
2023-03-17T07:11:39.631Z,101050.71
2023-03-17T07:16:42.586Z,101042.66
2023-03-17T07:21:47.057Z,101047.48
2023-03-17T07:26:50.384Z,101047.94
2023-03-17T07:31:54.228Z,101048.50
2023-03-17T07:36:57.683Z,101044.81
2023-03-17T07:42:00.511Z,101043.63
2023-03-17T07:47:03.340Z,101049.38
2023-03-17T07:52:06.709Z,101051.10
2023-03-17T07:57:13.093Z,101055.02
2023-03-17T08:02:18.450Z,101062.09
2023-03-17T08:07:23.831Z,101060.71
2023-03-17T08:12:26.745Z,101059.84
2023-03-17T08:17:29.511Z,101056.44
2023-03-17T08:22:32.342Z,101051.02
2023-03-17T08:27:35.214Z,101052.80
2023-03-17T08:32:38.113Z,101046.33
2023-03-17T08:37:40.964Z,101048.72
2023-03-17T08:42:45.325Z,101050.31
2023-03-17T08:47:48.326Z,101060.30
2023-03-17T08:52:52.391Z,101060.16
2023-03-17T08:57:55.246Z,101066.95
2023-03-17T09:02:58.972Z,101071.98
2023-03-17T09:08:18.228Z,101066.77
2023-03-17T09:13:34.090Z,101070.45
2023-03-17T09:18:37.242Z,101075.73
2023-03-17T09:23:41.656Z,101081.52
2023-03-17T09:28:44.889Z,101069.70
2023-03-17T09:33:47.720Z,101057.88
2023-03-17T09:38:51.282Z,101049.04
2023-03-17T09:44:22.388Z,101052.58
2023-03-17T09:49:37.751Z,101048.57
2023-03-17T09:54:43.263Z,101045.04
2023-03-17T09:59:52.375Z,101027.83
2023-03-17T10:04:59.580Z,101030.20
2023-03-17T10:10:20.779Z,101040.06
2023-03-17T10:15:50.798Z,101030.11
2023-03-17T10:21:00.367Z,101026.95
2023-03-17T10:26:12.817Z,101035.34
2023-03-17T10:31:28.687Z,101031.02
2023-03-17T10:36:54.061Z,101023.88
2023-03-17T10:42:19.834Z,101012.90
2023-03-17T10:47:29.832Z,101007.54
2023-03-17T10:52:39.717Z,101010.84
2023-03-17T10:58:15.327Z,101001.92
2023-03-17T11:03:28.257Z,100998.86
2023-03-17T11:08:35.923Z,101001.89
2023-03-17T11:13:39.972Z,100999.42
2023-03-17T11:18:43.208Z,101005.95
2023-03-17T11:23:58.879Z,100999.58
2023-03-17T11:29:19.949Z,100988.11
2023-03-17T11:34:46.505Z,100982.82
2023-03-17T11:40:08.723Z,100977.98
2023-03-17T11:45:19.777Z,100972.87
2023-03-17T11:50:24.682Z,100975.58
2023-03-17T11:55:43.686Z,100971.58
2023-03-17T12:00:53.012Z,100960.60
2023-03-17T12:06:04.540Z,100958.95
2023-03-17T12:11:12.436Z,100952.69
2023-03-17T12:16:26.807Z,100954.45
2023-03-17T12:21:52.250Z,100949.29
2023-03-17T12:27:17.058Z,100934.70
2023-03-17T12:32:38.639Z,100922.98
2023-03-17T12:37:41.994Z,100913.80
2023-03-17T12:43:03.538Z,100906.89
2023-03-17T12:48:44.485Z,100897.18
2023-03-17T12:53:50.907Z,100906.54
2023-03-17T12:59:02.025Z,100897.24
2023-03-17T13:04:30.087Z,100880.89
2023-03-17T13:09:33.076Z,100884.98
2023-03-17T13:14:46.675Z,100879.75
2023-03-17T13:20:08.410Z,100879.81
2023-03-17T13:25:35.737Z,100869.73
2023-03-17T13:30:39.110Z,100869.91
2023-03-17T13:35:42.056Z,100870.95
2023-03-17T13:41:13.238Z,100860.56
2023-03-17T13:46:21.453Z,100850.05
2023-03-17T13:51:27.512Z,100852.31
2023-03-17T13:56:36.700Z,100847.56
2023-03-17T14:01:59.695Z,100847.47
2023-03-17T14:07:10.099Z,100846.53
2023-03-17T14:12:51.327Z,100841.56
2023-03-17T14:18:01.643Z,100837.96
2023-03-17T14:23:06.654Z,100834.50
2023-03-17T14:28:15.500Z,100833.30
2023-03-17T14:33:27.913Z,100842.40
2023-03-17T14:38:37.873Z,100846.64
2023-03-17T14:43:41.870Z,100836.95
2023-03-17T14:48:48.385Z,100822.73
2023-03-17T14:53:53.161Z,100819.15
2023-03-17T14:59:06.478Z,100811.59
2023-03-17T15:04:16.891Z,100815.51
2023-03-17T15:09:33.382Z,100817.14
2023-03-17T15:14:40.072Z,100810.95
2023-03-17T15:19:46.069Z,100792.30
2023-03-17T15:24:59.198Z,100792.17
2023-03-17T15:30:02.658Z,100793.95
2023-03-17T15:35:06.900Z,100793.45
2023-03-17T15:40:10.746Z,100787.60
2023-03-17T15:45:18.184Z,100771.70
2023-03-17T15:50:34.894Z,100748.67
2023-03-17T15:55:37.957Z,100741.60
2023-03-17T16:00:41.676Z,100735.76
2023-03-17T16:05:45.029Z,100729.88
2023-03-17T16:10:48.281Z,100736.46
2023-03-17T16:15:55.913Z,100738.19
2023-03-17T16:20:58.884Z,100743.40
2023-03-17T16:26:14.224Z,100739.92
2023-03-17T16:31:19.982Z,100743.34
2023-03-17T16:36:24.475Z,100742.79
2023-03-17T16:41:28.368Z,100742.27
2023-03-17T16:46:35.623Z,100739.48
2023-03-17T16:51:38.649Z,100734.95
2023-03-17T16:56:43.066Z,100729.38
2023-03-17T17:01:46.021Z,100722.26
2023-03-17T17:06:50.095Z,100713.45
2023-03-17T17:11:52.892Z,100714.10
2023-03-17T17:16:58.080Z,100712.66
2023-03-17T17:22:01.147Z,100720.05
2023-03-17T17:27:04.198Z,100719.31
2023-03-17T17:32:07.098Z,100720.14
2023-03-17T17:37:11.401Z,100725.14
2023-03-17T17:42:14.354Z,100718.38
2023-03-17T17:47:17.299Z,100722.33
2023-03-17T17:52:20.133Z,100724.90
2023-03-17T17:57:24.374Z,100725.06
2023-03-17T18:02:29.890Z,100713.31
2023-03-17T18:07:32.841Z,100705.69
2023-03-17T18:12:35.706Z,100709.63
2023-03-17T18:17:38.641Z,100705.13
2023-03-17T18:22:41.776Z,100699.76
2023-03-17T18:27:45.253Z,100695.94
2023-03-17T18:32:49.888Z,100687.83
2023-03-17T18:37:53.848Z,100692.13
2023-03-17T18:42:56.854Z,100694.70
2023-03-17T18:47:59.863Z,100686.41
2023-03-17T18:53:03.313Z,100688.98
2023-03-17T18:58:06.506Z,100688.11
2023-03-17T19:03:09.534Z,100689.83
2023-03-17T19:08:14.056Z,100691.38
2023-03-17T19:13:17.075Z,100695.85
2023-03-17T19:18:19.869Z,100691.51
2023-03-17T19:23:23.921Z,100684.92
2023-03-17T19:28:26.807Z,100689.05
2023-03-17T19:33:29.652Z,100684.70
2023-03-17T19:38:32.928Z,100682.63
2023-03-17T19:43:40.836Z,100686.73
2023-03-17T19:48:44.240Z,100689.64
2023-03-17T19:53:47.063Z,100693.23
2023-03-17T19:58:50.151Z,100682.15
2023-03-17T20:03:53.087Z,100680.23
2023-03-17T20:08:56.029Z,100677.96
2023-03-17T20:13:58.840Z,100680.52
2023-03-17T20:19:02.306Z,100678.25
2023-03-17T20:24:05.865Z,100679.97
2023-03-17T20:29:09.896Z,100679.45
2023-03-17T20:34:12.849Z,100668.06
2023-03-17T20:39:20.118Z,100666.86
2023-03-17T20:44:24.188Z,100671.36
2023-03-17T20:49:27.855Z,100669.63
2023-03-17T20:54:30.672Z,100680.48
2023-03-17T20:59:34.619Z,100684.61
2023-03-17T21:04:37.724Z,100675.48
2023-03-17T21:09:43.828Z,100672.70
2023-03-17T21:14:48.336Z,100672.52
2023-03-17T21:19:51.164Z,100668.34
2023-03-17T21:24:54.072Z,100663.65
2023-03-17T21:29:56.883Z,100661.04
2023-03-17T21:34:59.659Z,100655.84
2023-03-17T21:40:07.092Z,100646.19
2023-03-17T21:45:10.622Z,100629.48
2023-03-17T21:50:14.529Z,100625.88
2023-03-17T21:55:18.708Z,100622.09
2023-03-17T22:00:23.643Z,100623.64
2023-03-17T22:05:27.292Z,100630.02
2023-03-17T22:10:30.596Z,100626.77
2023-03-17T22:15:33.502Z,100629.16
2023-03-17T22:20:36.387Z,100635.89
2023-03-17T22:25:39.201Z,100634.84
2023-03-17T22:30:43.718Z,100633.78
2023-03-17T22:35:47.016Z,100628.08
2023-03-17T22:41:03.971Z,100626.86
2023-03-17T22:46:06.840Z,100628.73
2023-03-17T22:51:12.657Z,100627.50
2023-03-17T22:56:17.430Z,100633.33
2023-03-17T23:01:22.673Z,100627.61
2023-03-17T23:06:25.813Z,100624.30
2023-03-17T23:11:31.151Z,100625.64
2023-03-17T23:16:34.255Z,100627.85
2023-03-17T23:21:38.819Z,100630.06
2023-03-17T23:26:42.130Z,100628.00
2023-03-17T23:31:44.993Z,100626.22
2023-03-17T23:36:48.977Z,100617.04
2023-03-17T23:41:53.435Z,100611.30
2023-03-17T23:46:57.335Z,100610.05
2023-03-17T23:52:00.092Z,100597.78
2023-03-17T23:57:03.214Z,100599.98
